sensor_id;sensor_type;location;lat;lon;timestamp;temperature;humidity
54846;DHT22;53889;50.084;8.646;2024-03-02T08:07:28;6.00;99.90
54846;DHT22;53889;50.084;8.646;2024-03-02T08:09:54;6.00;99.90
54846;DHT22;53889;50.084;8.646;2024-03-02T08:12:21;6.40;99.90
54846;DHT22;53889;50.084;8.646;2024-03-02T08:14:49;7.00;99.90
54846;DHT22;53889;50.084;8.646;2024-03-02T08:17:15;7.80;99.90
54846;DHT22;53889;50.084;8.646;2024-03-02T08:19:43;8.20;99.90
54846;DHT22;53889;50.084;8.646;2024-03-02T08:22:10;8.40;99.90
54846;DHT22;53889;50.084;8.646;2024-03-02T08:24:38;8.60;99.90
54846;DHT22;53889;50.084;8.646;2024-03-02T08:27:06;8.60;99.90
54846;DHT22;53889;50.084;8.646;2024-03-02T08:29:32;8.50;99.90
54846;DHT22;53889;50.084;8.646;2024-03-02T08:32:00;9.50;99.90
54846;DHT22;53889;50.084;8.646;2024-03-02T08:34:26;8.60;99.90
54846;DHT22;53889;50.084;8.646;2024-03-02T08:36:56;8.40;99.90
54846;DHT22;53889;50.084;8.646;2024-03-02T08:39:22;10.80;99.90
54846;DHT22;53889;50.084;8.646;2024-03-02T08:41:51;8.20;99.90
54846;DHT22;53889;50.084;8.646;2024-03-02T08:44:18;8.10;99.90
54846;DHT22;53889;50.084;8.646;2024-03-02T08:46:45;9.00;99.90
54846;DHT22;53889;50.084;8.646;2024-03-02T08:49:12;9.20;99.90
54846;DHT22;53889;50.084;8.646;2024-03-02T08:51:39;8.00;99.90
54846;DHT22;53889;50.084;8.646;2024-03-02T08:54:06;7.90;99.90
54846;DHT22;53889;50.084;8.646;2024-03-02T08:56:33;9.80;99.90
54846;DHT22;53889;50.084;8.646;2024-03-02T08:59:01;8.00;99.90
54846;DHT22;53889;50.084;8.646;2024-03-02T09:01:29;8.00;99.90
54846;DHT22;53889;50.084;8.646;2024-03-02T09:03:56;8.00;99.90
54846;DHT22;53889;50.084;8.646;2024-03-02T09:06:23;8.20;99.90
54846;DHT22;53889;50.084;8.646;2024-03-02T09:08:49;8.30;99.90
54846;DHT22;53889;50.084;8.646;2024-03-02T09:11:17;8.40;99.90
54846;DHT22;53889;50.084;8.646;2024-03-02T09:13:44;9.20;99.90
54846;DHT22;53889;50.084;8.646;2024-03-02T09:16:12;8.70;99.90
54846;DHT22;53889;50.084;8.646;2024-03-02T09:18:39;8.90;99.90
54846;DHT22;53889;50.084;8.646;2024-03-02T09:21:06;9.10;99.90
54846;DHT22;53889;50.084;8.646;2024-03-02T09:23:33;9.50;99.90
54846;DHT22;53889;50.084;8.646;2024-03-02T09:26:00;10.70;99.90
54846;DHT22;53889;50.084;8.646;2024-03-02T09:28:27;10.00;99.90
54846;DHT22;53889;50.084;8.646;2024-03-02T09:30:53;11.50;99.90
54846;DHT22;53889;50.084;8.646;2024-03-02T09:33:21;10.30;99.90
54846;DHT22;53889;50.084;8.646;2024-03-02T09:35:48;10.30;99.90
54846;DHT22;53889;50.084;8.646;2024-03-02T09:38:15;10.40;99.90
54846;DHT22;53889;50.084;8.646;2024-03-02T09:40:42;10.70;99.90
54846;DHT22;53889;50.084;8.646;2024-03-02T09:43:09;10.90;99.90
54846;DHT22;53889;50.084;8.646;2024-03-02T09:45:36;11.10;99.90
54846;DHT22;53889;50.084;8.646;2024-03-02T09:48:03;12.80;99.90
54846;DHT22;53889;50.084;8.646;2024-03-02T09:50:31;12.10;99.90
54846;DHT22;53889;50.084;8.646;2024-03-02T09:52:59;12.50;99.90
54846;DHT22;53889;50.084;8.646;2024-03-02T09:55:25;13.80;99.90
54846;DHT22;53889;50.084;8.646;2024-03-02T09:57:52;12.30;99.90
54846;DHT22;53889;50.084;8.646;2024-03-02T10:00:19;13.70;99.90
54846;DHT22;53889;50.084;8.646;2024-03-02T10:02:45;12.70;99.90
54846;DHT22;53889;50.084;8.646;2024-03-02T10:05:23;12.80;99.90
54846;DHT22;53889;50.084;8.646;2024-03-02T10:07:58;13.10;99.90
54846;DHT22;53889;50.084;8.646;2024-03-02T10:10:34;13.00;99.60
54846;DHT22;53889;50.084;8.646;2024-03-02T10:13:03;13.80;99.60
54846;DHT22;53889;50.084;8.646;2024-03-02T10:15:30;13.60;99.10
54846;DHT22;53889;50.084;8.646;2024-03-02T10:17:58;14.20;98.60
54846;DHT22;53889;50.084;8.646;2024-03-02T10:20:25;14.80;97.80
54846;DHT22;53889;50.084;8.646;2024-03-02T10:22:55;13.90;97.50
54846;DHT22;53889;50.084;8.646;2024-03-02T10:25:30;13.90;97.40
54846;DHT22;53889;50.084;8.646;2024-03-02T10:27:58;14.30;97.00
54846;DHT22;53889;50.084;8.646;2024-03-02T10:30:26;15.00;96.60
54846;DHT22;53889;50.084;8.646;2024-03-02T10:32:53;15.10;96.60
54846;DHT22;53889;50.084;8.646;2024-03-02T10:35:21;14.50;96.10
54846;DHT22;53889;50.084;8.646;2024-03-02T10:37:49;14.60;96.10
54846;DHT22;53889;50.084;8.646;2024-03-02T10:40:17;15.70;95.80
54846;DHT22;53889;50.084;8.646;2024-03-02T10:42:47;16.00;95.60
54846;DHT22;53889;50.084;8.646;2024-03-02T10:45:16;15.30;94.90
54846;DHT22;53889;50.084;8.646;2024-03-02T10:47:43;15.70;94.40
54846;DHT22;53889;50.084;8.646;2024-03-02T10:50:10;15.70;93.60
54846;DHT22;53889;50.084;8.646;2024-03-02T10:52:37;17.60;94.30
54846;DHT22;53889;50.084;8.646;2024-03-02T10:55:05;16.00;93.10
54846;DHT22;53889;50.084;8.646;2024-03-02T10:57:41;16.30;93.20
54846;DHT22;53889;50.084;8.646;2024-03-02T11:00:12;17.10;92.10
54846;DHT22;53889;50.084;8.646;2024-03-02T11:02:46;17.40;91.60
54846;DHT22;53889;50.084;8.646;2024-03-02T11:05:24;17.30;91.00
54846;DHT22;53889;50.084;8.646;2024-03-02T11:07:53;17.70;90.80
54846;DHT22;53889;50.084;8.646;2024-03-02T11:10:23;18.00;90.30
54846;DHT22;53889;50.084;8.646;2024-03-02T11:12:57;18.10;89.10
54846;DHT22;53889;50.084;8.646;2024-03-02T11:15:27;18.20;88.80
54846;DHT22;53889;50.084;8.646;2024-03-02T11:17:55;18.10;88.40
54846;DHT22;53889;50.084;8.646;2024-03-02T11:20:22;18.10;88.90
54846;DHT22;53889;50.084;8.646;2024-03-02T11:22:50;18.20;89.70
54846;DHT22;53889;50.084;8.646;2024-03-02T11:25:24;18.20;88.00
54846;DHT22;53889;50.084;8.646;2024-03-02T11:28:02;19.10;86.40
54846;DHT22;53889;50.084;8.646;2024-03-02T11:30:48;19.30;84.70
54846;DHT22;53889;50.084;8.646;2024-03-02T11:33:23;19.00;83.60
54846;DHT22;53889;50.084;8.646;2024-03-02T11:35:50;18.70;84.70
54846;DHT22;53889;50.084;8.646;2024-03-02T11:38:18;18.70;84.90
54846;DHT22;53889;50.084;8.646;2024-03-02T11:40:44;19.00;84.40
54846;DHT22;53889;50.084;8.646;2024-03-02T11:43:13;19.40;82.80
54846;DHT22;53889;50.084;8.646;2024-03-02T11:45:42;19.80;81.50
54846;DHT22;53889;50.084;8.646;2024-03-02T11:48:11;20.30;80.90
54846;DHT22;53889;50.084;8.646;2024-03-02T11:50:41;20.10;79.60
54846;DHT22;53889;50.084;8.646;2024-03-02T11:53:09;19.90;79.90
54846;DHT22;53889;50.084;8.646;2024-03-02T11:55:38;19.50;79.60
54846;DHT22;53889;50.084;8.646;2024-03-02T11:58:05;20.10;79.40
54846;DHT22;53889;50.084;8.646;2024-03-02T12:00:33;20.60;78.60
54846;DHT22;53889;50.084;8.646;2024-03-02T12:03:01;20.30;78.10
54846;DHT22;53889;50.084;8.646;2024-03-02T12:05:28;20.10;79.20
54846;DHT22;53889;50.084;8.646;2024-03-02T12:07:57;20.00;78.70
54846;DHT22;53889;50.084;8.646;2024-03-02T12:10:24;20.30;77.70
54846;DHT22;53889;50.084;8.646;2024-03-02T12:12:57;19.70;78.30
54846;DHT22;53889;50.084;8.646;2024-03-02T12:15:25;19.20;79.40
54846;DHT22;53889;50.084;8.646;2024-03-02T12:17:55;19.00;80.10
54846;DHT22;53889;50.084;8.646;2024-03-02T12:20:22;19.10;79.50
54846;DHT22;53889;50.084;8.646;2024-03-02T12:22:50;19.10;79.30
54846;DHT22;53889;50.084;8.646;2024-03-02T12:25:19;19.30;79.40
54846;DHT22;53889;50.084;8.646;2024-03-02T12:27:46;19.60;77.30
54846;DHT22;53889;50.084;8.646;2024-03-02T12:30:14;19.90;78.00
54846;DHT22;53889;50.084;8.646;2024-03-02T12:32:41;20.10;77.60
54846;DHT22;53889;50.084;8.646;2024-03-02T12:35:10;20.60;76.40
54846;DHT22;53889;50.084;8.646;2024-03-02T12:37:44;21.00;74.20
54846;DHT22;53889;50.084;8.646;2024-03-02T12:40:11;21.10;73.30
54846;DHT22;53889;50.084;8.646;2024-03-02T12:42:38;21.80;72.90
54846;DHT22;53889;50.084;8.646;2024-03-02T12:45:05;21.60;73.70
54846;DHT22;53889;50.084;8.646;2024-03-02T12:47:33;20.90;73.30
54846;DHT22;53889;50.084;8.646;2024-03-02T12:50:00;20.10;74.30
54846;DHT22;53889;50.084;8.646;2024-03-02T12:52:29;20.00;75.50
54846;DHT22;53889;50.084;8.646;2024-03-02T12:54:55;20.00;75.20
54846;DHT22;53889;50.084;8.646;2024-03-02T12:57:25;21.40;76.00
54846;DHT22;53889;50.084;8.646;2024-03-02T12:59:57;20.10;75.50
54846;DHT22;53889;50.084;8.646;2024-03-02T13:02:28;20.50;74.70
54846;DHT22;53889;50.084;8.646;2024-03-02T13:04:55;20.70;74.20
54846;DHT22;53889;50.084;8.646;2024-03-02T13:07:23;21.60;74.90
54846;DHT22;53889;50.084;8.646;2024-03-02T13:09:52;20.60;74.80
54846;DHT22;53889;50.084;8.646;2024-03-02T13:12:21;20.60;73.90
54846;DHT22;53889;50.084;8.646;2024-03-02T13:14:48;20.60;74.00
54846;DHT22;53889;50.084;8.646;2024-03-02T13:17:17;20.90;73.90
54846;DHT22;53889;50.084;8.646;2024-03-02T13:19:51;21.00;72.70
54846;DHT22;53889;50.084;8.646;2024-03-02T13:22:18;21.20;73.10
54846;DHT22;53889;50.084;8.646;2024-03-02T13:24:45;21.40;72.70
54846;DHT22;53889;50.084;8.646;2024-03-02T13:27:13;21.40;72.50
54846;DHT22;53889;50.084;8.646;2024-03-02T13:29:41;22.00;72.70
54846;DHT22;53889;50.084;8.646;2024-03-02T13:32:08;21.60;71.70
54846;DHT22;53889;50.084;8.646;2024-03-02T13:34:35;21.90;71.50
54846;DHT22;53889;50.084;8.646;2024-03-02T13:37:03;21.30;71.20
54846;DHT22;53889;50.084;8.646;2024-03-02T13:39:31;21.20;71.50
54846;DHT22;53889;50.084;8.646;2024-03-02T13:41:58;22.80;72.70
54846;DHT22;53889;50.084;8.646;2024-03-02T13:44:31;21.00;72.00
54846;DHT22;53889;50.084;8.646;2024-03-02T13:46:59;20.40;71.40
54846;DHT22;53889;50.084;8.646;2024-03-02T13:49:26;20.20;73.10
54846;DHT22;53889;50.084;8.646;2024-03-02T13:51:59;19.50;73.50
54846;DHT22;53889;50.084;8.646;2024-03-02T13:54:28;19.00;75.20
54846;DHT22;53889;50.084;8.646;2024-03-02T13:56:55;20.00;76.50
54846;DHT22;53889;50.084;8.646;2024-03-02T13:59:23;18.90;76.00
54846;DHT22;53889;50.084;8.646;2024-03-02T14:01:51;18.90;76.80
54846;DHT22;53889;50.084;8.646;2024-03-02T14:04:18;20.30;77.40
54846;DHT22;53889;50.084;8.646;2024-03-02T14:06:45;17.90;77.50
54846;DHT22;53889;50.084;8.646;2024-03-02T14:09:12;18.00;78.50
54846;DHT22;53889;50.084;8.646;2024-03-02T14:11:38;18.60;78.80
54846;DHT22;53889;50.084;8.646;2024-03-02T14:14:05;15.90;77.30
54846;DHT22;53889;50.084;8.646;2024-03-02T14:16:32;18.10;78.20
54846;DHT22;53889;50.084;8.646;2024-03-02T14:21:34;17.80;79.30
54846;DHT22;53889;50.084;8.646;2024-03-02T14:24:01;17.30;79.30
54846;DHT22;53889;50.084;8.646;2024-03-02T14:26:28;17.50;80.10
54846;DHT22;53889;50.084;8.646;2024-03-02T14:28:55;17.30;80.50
54846;DHT22;53889;50.084;8.646;2024-03-02T14:31:22;17.00;81.10
54846;DHT22;53889;50.084;8.646;2024-03-02T14:33:49;17.00;81.40
54846;DHT22;53889;50.084;8.646;2024-03-02T14:36:16;17.40;81.50
54846;DHT22;53889;50.084;8.646;2024-03-02T14:38:44;17.10;81.30
54846;DHT22;53889;50.084;8.646;2024-03-02T14:41:11;17.00;81.50
54846;DHT22;53889;50.084;8.646;2024-03-02T14:43:38;18.80;82.50
54846;DHT22;53889;50.084;8.646;2024-03-02T14:46:06;16.80;81.40
54846;DHT22;53889;50.084;8.646;2024-03-02T14:48:33;16.80;82.70
54846;DHT22;53889;50.084;8.646;2024-03-02T14:51:00;16.60;82.70
54846;DHT22;53889;50.084;8.646;2024-03-02T14:53:27;16.60;82.70
54846;DHT22;53889;50.084;8.646;2024-03-02T14:55:56;17.80;83.10
54846;DHT22;53889;50.084;8.646;2024-03-02T14:58:23;16.60;82.70
54846;DHT22;53889;50.084;8.646;2024-03-02T15:00:51;16.60;82.20
54846;DHT22;53889;50.084;8.646;2024-03-02T15:03:18;16.50;82.40
54846;DHT22;53889;50.084;8.646;2024-03-02T15:05:45;16.50;82.70
54846;DHT22;53889;50.084;8.646;2024-03-02T15:08:12;16.50;82.80
54846;DHT22;53889;50.084;8.646;2024-03-02T15:10:39;16.30;83.30
54846;DHT22;53889;50.084;8.646;2024-03-02T15:13:07;16.10;83.80
54846;DHT22;53889;50.084;8.646;2024-03-02T15:15:34;15.80;84.50
54846;DHT22;53889;50.084;8.646;2024-03-02T15:18:00;15.70;84.70
54846;DHT22;53889;50.084;8.646;2024-03-02T15:20:27;15.70;85.00
54846;DHT22;53889;50.084;8.646;2024-03-02T15:22:54;15.50;85.00
54846;DHT22;53889;50.084;8.646;2024-03-02T15:25:21;15.60;85.00
54846;DHT22;53889;50.084;8.646;2024-03-02T15:27:48;15.60;84.70
54846;DHT22;53889;50.084;8.646;2024-03-02T15:30:16;15.70;84.90
54846;DHT22;53889;50.084;8.646;2024-03-02T15:32:43;15.80;84.80
54846;DHT22;53889;50.084;8.646;2024-03-02T15:35:09;15.80;84.90
54846;DHT22;53889;50.084;8.646;2024-03-02T15:37:36;15.90;84.50
54846;DHT22;53889;50.084;8.646;2024-03-02T15:40:04;15.70;84.30
54846;DHT22;53889;50.084;8.646;2024-03-02T15:42:33;15.60;84.60
54846;DHT22;53889;50.084;8.646;2024-03-02T15:44:59;15.60;84.20
54846;DHT22;53889;50.084;8.646;2024-03-02T15:47:28;15.60;84.70
54846;DHT22;53889;50.084;8.646;2024-03-02T15:49:54;15.70;84.20
54846;DHT22;53889;50.084;8.646;2024-03-02T15:52:21;15.80;84.10
54846;DHT22;53889;50.084;8.646;2024-03-02T15:54:48;15.90;84.00
54846;DHT22;53889;50.084;8.646;2024-03-02T15:57:15;15.80;83.80
54846;DHT22;53889;50.084;8.646;2024-03-02T15:59:42;16.00;83.70
54846;DHT22;53889;50.084;8.646;2024-03-02T16:02:09;15.70;83.50
54846;DHT22;53889;50.084;8.646;2024-03-02T16:04:37;15.60;83.70
54846;DHT22;53889;50.084;8.646;2024-03-02T16:07:04;15.50;84.50
54846;DHT22;53889;50.084;8.646;2024-03-02T16:09:31;15.40;83.80
54846;DHT22;53889;50.084;8.646;2024-03-02T16:11:57;15.30;84.00
54846;DHT22;53889;50.084;8.646;2024-03-02T16:14:24;16.60;85.10
54846;DHT22;53889;50.084;8.646;2024-03-02T16:16:51;15.30;84.70
54846;DHT22;53889;50.084;8.646;2024-03-02T16:19:18;15.20;84.80
54846;DHT22;53889;50.084;8.646;2024-03-02T16:21:46;16.10;85.60
54846;DHT22;53889;50.084;8.646;2024-03-02T16:24:13;15.10;85.50
54846;DHT22;53889;50.084;8.646;2024-03-02T16:26:40;15.60;86.00
54846;DHT22;53889;50.084;8.646;2024-03-02T16:29:06;15.10;85.90
54846;DHT22;53889;50.084;8.646;2024-03-02T16:31:33;15.10;86.20
54846;DHT22;53889;50.084;8.646;2024-03-02T16:34:00;15.10;86.50
54846;DHT22;53889;50.084;8.646;2024-03-02T16:36:27;14.90;86.80
54846;DHT22;53889;50.084;8.646;2024-03-02T16:38:59;14.90;87.40
54846;DHT22;53889;50.084;8.646;2024-03-02T16:41:26;14.80;87.50
54846;DHT22;53889;50.084;8.646;2024-03-02T16:43:55;14.80;87.70
54846;DHT22;53889;50.084;8.646;2024-03-02T16:46:22;14.80;87.80
54846;DHT22;53889;50.084;8.646;2024-03-02T16:48:49;14.80;88.00
54846;DHT22;53889;50.084;8.646;2024-03-02T16:51:16;16.90;89.50
54846;DHT22;53889;50.084;8.646;2024-03-02T16:53:43;14.80;88.20
54846;DHT22;53889;50.084;8.646;2024-03-02T16:56:13;14.80;88.60
54846;DHT22;53889;50.084;8.646;2024-03-02T16:58:43;14.80;89.10
54846;DHT22;53889;50.084;8.646;2024-03-02T17:01:15;14.70;88.90
54846;DHT22;53889;50.084;8.646;2024-03-02T17:03:42;14.70;89.20
54846;DHT22;53889;50.084;8.646;2024-03-02T17:06:09;14.70;89.30
54846;DHT22;53889;50.084;8.646;2024-03-02T17:08:36;14.60;89.30
54846;DHT22;53889;50.084;8.646;2024-03-02T17:11:04;14.60;89.80
54846;DHT22;53889;50.084;8.646;2024-03-02T17:13:35;13.20;89.20
54846;DHT22;53889;50.084;8.646;2024-03-02T17:16:10;14.50;90.10
54846;DHT22;53889;50.084;8.646;2024-03-02T17:18:52;14.40;90.10
54846;DHT22;53889;50.084;8.646;2024-03-02T17:21:24;14.30;90.20
54846;DHT22;53889;50.084;8.646;2024-03-02T17:23:54;14.30;90.40
54846;DHT22;53889;50.084;8.646;2024-03-02T17:26:28;14.30;90.50
54846;DHT22;53889;50.084;8.646;2024-03-02T17:28:58;14.20;90.60
54846;DHT22;53889;50.084;8.646;2024-03-02T17:31:36;14.20;90.70
54846;DHT22;53889;50.084;8.646;2024-03-02T17:34:06;14.10;90.70
54846;DHT22;53889;50.084;8.646;2024-03-02T17:36:33;14.00;90.80
54846;DHT22;53889;50.084;8.646;2024-03-02T17:38:59;15.10;91.20
54846;DHT22;53889;50.084;8.646;2024-03-02T17:41:28;14.00;91.00
54846;DHT22;53889;50.084;8.646;2024-03-02T17:43:56;14.00;91.00
54846;DHT22;53889;50.084;8.646;2024-03-02T17:46:23;13.90;91.20
54846;DHT22;53889;50.084;8.646;2024-03-02T17:48:51;13.90;91.30
54846;DHT22;53889;50.084;8.646;2024-03-02T17:51:17;14.10;91.60
54846;DHT22;53889;50.084;8.646;2024-03-02T17:53:44;13.80;91.60
54846;DHT22;53889;50.084;8.646;2024-03-02T17:56:14;13.80;91.60
54846;DHT22;53889;50.084;8.646;2024-03-02T17:58:41;13.70;91.70
54846;DHT22;53889;50.084;8.646;2024-03-02T18:01:09;13.70;91.80
54846;DHT22;53889;50.084;8.646;2024-03-02T18:03:37;13.70;91.90
54846;DHT22;53889;50.084;8.646;2024-03-02T18:06:04;13.60;92.00
54846;DHT22;53889;50.084;8.646;2024-03-02T18:08:31;13.50;92.10
54846;DHT22;53889;50.084;8.646;2024-03-02T18:10:59;13.50;92.20
54846;DHT22;53889;50.084;8.646;2024-03-02T18:13:26;13.40;92.20
54846;DHT22;53889;50.084;8.646;2024-03-02T18:15:54;13.30;92.30
54846;DHT22;53889;50.084;8.646;2024-03-02T18:18:23;13.30;92.60
54846;DHT22;53889;50.084;8.646;2024-03-02T18:20:50;13.30;92.60
54846;DHT22;53889;50.084;8.646;2024-03-02T18:23:18;13.20;92.70
54846;DHT22;53889;50.084;8.646;2024-03-02T18:25:46;13.10;93.00
54846;DHT22;53889;50.084;8.646;2024-03-02T18:28:21;13.00;93.20
54846;DHT22;53889;50.084;8.646;2024-03-02T18:30:49;13.00;93.20
54846;DHT22;53889;50.084;8.646;2024-03-02T18:33:23;13.00;93.60
54846;DHT22;53889;50.084;8.646;2024-03-02T18:35:52;13.00;93.40
54846;DHT22;53889;50.084;8.646;2024-03-02T18:38:26;15.80;94.40
54846;DHT22;53889;50.084;8.646;2024-03-02T18:40:58;12.90;93.60
54846;DHT22;53889;50.084;8.646;2024-03-02T18:43:38;12.90;93.70
54846;DHT22;53889;50.084;8.646;2024-03-02T18:46:13;12.90;93.80
54846;DHT22;53889;50.084;8.646;2024-03-02T18:48:44;13.90;94.40
54846;DHT22;53889;50.084;8.646;2024-03-02T18:51:14;12.90;94.00
54846;DHT22;53889;50.084;8.646;2024-03-02T18:53:41;13.00;94.00
54846;DHT22;53889;50.084;8.646;2024-03-02T18:56:09;13.00;94.00
54846;DHT22;53889;50.084;8.646;2024-03-02T18:58:36;12.90;94.20
54846;DHT22;53889;50.084;8.646;2024-03-02T19:01:02;13.00;94.20
54846;DHT22;53889;50.084;8.646;2024-03-02T19:03:30;12.90;94.30
54846;DHT22;53889;50.084;8.646;2024-03-02T19:05:58;12.90;94.40
54846;DHT22;53889;50.084;8.646;2024-03-02T19:08:26;12.80;94.60
54846;DHT22;53889;50.084;8.646;2024-03-02T19:10:53;12.90;94.70
54846;DHT22;53889;50.084;8.646;2024-03-02T19:13:20;12.90;94.70
54846;DHT22;53889;50.084;8.646;2024-03-02T19:16:02;12.90;94.90
54846;DHT22;53889;50.084;8.646;2024-03-02T19:18:29;12.90;94.90
54846;DHT22;53889;50.084;8.646;2024-03-02T19:20:58;12.80;95.00
54846;DHT22;53889;50.084;8.646;2024-03-02T19:23:27;12.80;95.20
54846;DHT22;53889;50.084;8.646;2024-03-02T19:25:56;12.80;95.40
54846;DHT22;53889;50.084;8.646;2024-03-02T19:28:26;12.70;95.70
54846;DHT22;53889;50.084;8.646;2024-03-02T19:30:55;12.60;95.90
54846;DHT22;53889;50.084;8.646;2024-03-02T19:33:23;12.60;96.10
54846;DHT22;53889;50.084;8.646;2024-03-02T19:36:00;12.60;96.10
54846;DHT22;53889;50.084;8.646;2024-03-02T19:38:28;12.60;96.20
54846;DHT22;53889;50.084;8.646;2024-03-02T19:41:04;12.60;96.30
54846;DHT22;53889;50.084;8.646;2024-03-02T19:43:36;12.60;96.40
54846;DHT22;53889;50.084;8.646;2024-03-02T19:46:11;12.50;96.50
54846;DHT22;53889;50.084;8.646;2024-03-02T19:48:45;12.60;96.50
54846;DHT22;53889;50.084;8.646;2024-03-02T19:51:20;13.70;96.80
54846;DHT22;53889;50.084;8.646;2024-03-02T19:53:48;12.60;96.60
54846;DHT22;53889;50.084;8.646;2024-03-02T19:56:17;13.00;96.70
54846;DHT22;53889;50.084;8.646;2024-03-02T19:58:47;12.60;96.70
54846;DHT22;53889;50.084;8.646;2024-03-02T20:01:17;12.60;96.70
54846;DHT22;53889;50.084;8.646;2024-03-02T20:03:44;12.50;96.80
54846;DHT22;53889;50.084;8.646;2024-03-02T20:06:15;12.50;96.80
54846;DHT22;53889;50.084;8.646;2024-03-02T20:08:44;12.50;96.90
54846;DHT22;53889;50.084;8.646;2024-03-02T20:11:13;12.60;96.80
54846;DHT22;53889;50.084;8.646;2024-03-02T20:13:51;12.70;96.80
54846;DHT22;53889;50.084;8.646;2024-03-02T20:16:21;12.50;97.00
54846;DHT22;53889;50.084;8.646;2024-03-02T20:18:49;12.50;96.90
54846;DHT22;53889;50.084;8.646;2024-03-02T20:21:16;12.40;97.00
54846;DHT22;53889;50.084;8.646;2024-03-02T20:23:44;12.50;97.00
54846;DHT22;53889;50.084;8.646;2024-03-02T20:26:11;12.40;97.10
54846;DHT22;53889;50.084;8.646;2024-03-02T20:28:38;12.40;97.20
54846;DHT22;53889;50.084;8.646;2024-03-02T20:31:05;12.40;97.20
54846;DHT22;53889;50.084;8.646;2024-03-02T20:33:32;12.20;97.30
54846;DHT22;53889;50.084;8.646;2024-03-02T20:35:59;13.70;97.80
54846;DHT22;53889;50.084;8.646;2024-03-02T20:38:28;12.10;97.50
54846;DHT22;53889;50.084;8.646;2024-03-02T20:40:56;12.10;97.60
54846;DHT22;53889;50.084;8.646;2024-03-02T20:43:23;12.20;97.70
54846;DHT22;53889;50.084;8.646;2024-03-02T20:45:51;12.10;97.60
54846;DHT22;53889;50.084;8.646;2024-03-02T20:48:17;12.10;97.70
54846;DHT22;53889;50.084;8.646;2024-03-02T20:50:44;12.10;97.80
54846;DHT22;53889;50.084;8.646;2024-03-02T20:53:11;12.00;98.10
54846;DHT22;53889;50.084;8.646;2024-03-02T20:55:38;11.90;98.20
54846;DHT22;53889;50.084;8.646;2024-03-02T20:58:06;11.90;98.30
54846;DHT22;53889;50.084;8.646;2024-03-02T21:00:34;11.70;98.50
54846;DHT22;53889;50.084;8.646;2024-03-02T21:03:01;11.70;98.30
54846;DHT22;53889;50.084;8.646;2024-03-02T21:05:30;12.10;98.60
54846;DHT22;53889;50.084;8.646;2024-03-02T21:07:57;11.70;98.60
54846;DHT22;53889;50.084;8.646;2024-03-02T21:10:24;11.60;98.60
54846;DHT22;53889;50.084;8.646;2024-03-02T21:12:51;11.40;98.60
54846;DHT22;53889;50.084;8.646;2024-03-02T21:15:20;11.40;98.90
54846;DHT22;53889;50.084;8.646;2024-03-02T21:17:47;11.40;99.20
54846;DHT22;53889;50.084;8.646;2024-03-02T21:20:20;11.40;99.10
54846;DHT22;53889;50.084;8.646;2024-03-02T21:22:51;11.40;99.10
54846;DHT22;53889;50.084;8.646;2024-03-02T21:25:18;11.50;99.10
54846;DHT22;53889;50.084;8.646;2024-03-02T21:27:46;12.10;99.20
54846;DHT22;53889;50.084;8.646;2024-03-02T21:30:14;12.40;99.50
54846;DHT22;53889;50.084;8.646;2024-03-02T21:32:43;11.40;99.40
54846;DHT22;53889;50.084;8.646;2024-03-02T21:35:10;11.30;99.50
54846;DHT22;53889;50.084;8.646;2024-03-02T21:37:37;13.10;99.90
54846;DHT22;53889;50.084;8.646;2024-03-02T21:40:05;12.10;99.90
54846;DHT22;53889;50.084;8.646;2024-03-02T21:42:33;11.30;99.80
54846;DHT22;53889;50.084;8.646;2024-03-02T21:44:59;11.20;99.90
54846;DHT22;53889;50.084;8.646;2024-03-02T21:47:26;14.10;99.90
54846;DHT22;53889;50.084;8.646;2024-03-02T21:49:54;12.20;99.90
54846;DHT22;53889;50.084;8.646;2024-03-02T21:52:21;11.10;99.90
54846;DHT22;53889;50.084;8.646;2024-03-02T21:54:48;12.50;99.90
54846;DHT22;53889;50.084;8.646;2024-03-02T21:57:15;11.10;99.90
54846;DHT22;53889;50.084;8.646;2024-03-02T21:59:45;11.20;99.90
54846;DHT22;53889;50.084;8.646;2024-03-02T22:02:12;11.20;99.90
54846;DHT22;53889;50.084;8.646;2024-03-02T22:04:39;11.10;99.90
54846;DHT22;53889;50.084;8.646;2024-03-02T22:07:07;11.10;99.90
54846;DHT22;53889;50.084;8.646;2024-03-02T22:09:33;11.20;99.90
54846;DHT22;53889;50.084;8.646;2024-03-02T22:12:00;12.90;99.90
54846;DHT22;53889;50.084;8.646;2024-03-02T22:14:27;11.30;99.90
54846;DHT22;53889;50.084;8.646;2024-03-02T22:16:54;11.10;99.90
54846;DHT22;53889;50.084;8.646;2024-03-02T22:19:20;11.10;99.90
54846;DHT22;53889;50.084;8.646;2024-03-02T22:21:47;11.70;99.90
54846;DHT22;53889;50.084;8.646;2024-03-02T22:24:16;11.20;99.90
54846;DHT22;53889;50.084;8.646;2024-03-02T22:26:43;11.10;99.90
54846;DHT22;53889;50.084;8.646;2024-03-02T22:29:09;11.10;99.90
54846;DHT22;53889;50.084;8.646;2024-03-02T22:31:36;11.60;99.90
54846;DHT22;53889;50.084;8.646;2024-03-02T22:34:03;11.10;99.90
54846;DHT22;53889;50.084;8.646;2024-03-02T22:36:31;11.20;99.90
54846;DHT22;53889;50.084;8.646;2024-03-02T22:38:58;11.20;99.90
54846;DHT22;53889;50.084;8.646;2024-03-02T22:41:26;11.10;99.90
54846;DHT22;53889;50.084;8.646;2024-03-02T22:43:53;12.90;99.90
54846;DHT22;53889;50.084;8.646;2024-03-02T22:46:20;11.10;99.90
54846;DHT22;53889;50.084;8.646;2024-03-02T22:48:47;10.90;99.90
54846;DHT22;53889;50.084;8.646;2024-03-02T22:51:20;10.80;99.90
54846;DHT22;53889;50.084;8.646;2024-03-02T22:53:47;10.70;99.90
54846;DHT22;53889;50.084;8.646;2024-03-02T22:56:14;11.70;99.90
54846;DHT22;53889;50.084;8.646;2024-03-02T22:58:43;10.60;99.90
54846;DHT22;53889;50.084;8.646;2024-03-02T23:01:10;10.60;99.90
54846;DHT22;53889;50.084;8.646;2024-03-02T23:03:38;10.30;99.90
54846;DHT22;53889;50.084;8.646;2024-03-02T23:06:05;10.20;99.90
54846;DHT22;53889;50.084;8.646;2024-03-02T23:08:33;10.30;99.90
54846;DHT22;53889;50.084;8.646;2024-03-02T23:11:00;10.30;99.90
54846;DHT22;53889;50.084;8.646;2024-03-02T23:13:27;10.20;99.90
54846;DHT22;53889;50.084;8.646;2024-03-02T23:15:56;10.20;99.90
54846;DHT22;53889;50.084;8.646;2024-03-02T23:18:23;10.20;99.90
54846;DHT22;53889;50.084;8.646;2024-03-02T23:20:50;10.10;99.90
54846;DHT22;53889;50.084;8.646;2024-03-02T23:23:16;10.00;99.90
54846;DHT22;53889;50.084;8.646;2024-03-02T23:25:44;9.90;99.90
54846;DHT22;53889;50.084;8.646;2024-03-02T23:28:11;9.90;99.90
54846;DHT22;53889;50.084;8.646;2024-03-02T23:30:38;9.90;99.90
54846;DHT22;53889;50.084;8.646;2024-03-02T23:33:06;11.40;99.90
54846;DHT22;53889;50.084;8.646;2024-03-02T23:35:33;10.00;99.90
54846;DHT22;53889;50.084;8.646;2024-03-02T23:38:00;9.90;99.90
54846;DHT22;53889;50.084;8.646;2024-03-02T23:40:27;9.90;99.90
54846;DHT22;53889;50.084;8.646;2024-03-02T23:43:16;9.80;99.90
54846;DHT22;53889;50.084;8.646;2024-03-02T23:45:43;9.50;99.90
54846;DHT22;53889;50.084;8.646;2024-03-02T23:48:12;9.80;99.90